CST,Max TemperatureF,Mean TemperatureF,Min TemperatureF,Max Dew PointF,MeanDew PointF,Min DewpointF,Max Humidity, Mean Humidity, Min Humidity, Max Sea Level PressureIn, Mean Sea Level PressureIn, Min Sea Level PressureIn, Max VisibilityMiles, Mean VisibilityMiles, Min VisibilityMiles, Max Wind SpeedMPH, Mean Wind SpeedMPH, Max Gust SpeedMPH,PrecipitationIn, CloudCover, Events, WindDirDegrees
2012-11-1,51,42,32,41,35,28,87,72,47,30.01,29.97,29.94,10,10,9,20,7,23,0.00,2,,340
2012-11-2,48,40,32,32,30,27,87,71,46,30.09,30.03,29.99,10,10,8,16,7,23,0.00,1,,85
2012-11-3,51,40,30,32,30,27,93,71,43,30.20,30.16,30.09,10,10,9,7,5,,0.00,3,,337
2012-11-4,53,44,35,43,37,32,100,79,54,30.19,30.11,30.02,10,10,4,14,4,,0.00,8,Rain,136
2012-11-5,42,40,39,43,40,39,100,94,87,30.16,30.09,30.02,7,4,1,17,11,18,0.04,8,Rain,117
2012-11-6,51,46,41,39,37,34,93,74,54,30.02,29.95,29.87,10,8,3,29,17,36,0.00,7,,294
2012-11-7,50,40,30,36,32,28,93,74,50,30.15,30.09,30.03,10,10,10,20,10,25,0.00,2,,340
2012-11-8,64,47,30,39,35,30,100,70,37,30.06,29.95,29.87,10,10,10,21,10,26,0.00,0,,171
2012-11-9,57,44,32,48,41,32,100,83,63,29.90,29.83,29.72,10,10,9,20,6,24,0.00,1,,98
2012-11-10,77,64,50,57,54,48,100,73,44,29.72,29.58,29.49,10,9,5,36,17,48,0.05,2,Rain,182
2012-11-11,55,37,19,54,25,14,100,81,64,30.10,29.88,29.63,10,8,1,25,18,34,0.04,4,Rain,303
2012-11-12,35,27,17,19,15,12,86,66,41,30.36,30.21,30.10,10,10,10,28,14,33,0.00,0,,275
2012-11-13,51,35,19,32,22,14,86,59,28,30.37,30.31,30.24,10,10,10,18,6,20,0.00,2,,184
2012-11-14,57,45,33,32,29,25,81,57,29,30.30,30.24,30.19,10,10,9,23,13,26,0.00,2,,205
2012-11-15,59,44,28,34,31,23,87,60,34,30.44,30.28,30.18,10,10,10,15,10,22,0.00,2,,290
2012-11-16,53,36,19,30,24,16,87,68,35,30.46,30.40,30.32,10,10,10,12,6,13,0.00,0,,198
2012-11-17,60,46,32,37,32,27,93,61,34,30.33,30.25,30.19,10,10,9,28,11,37,0.00,2,,170
2012-11-18,60,51,42,43,32,30,76,48,34,30.20,30.12,30.07,10,10,10,23,16,32,0.00,3,Rain,176
2012-11-19,60,48,37,43,38,34,87,69,45,30.08,30.04,29.99,10,10,5,18,11,25,0.00,1,Rain,224
2012-11-20,60,46,33,39,34,28,93,66,29,30.20,30.15,30.09,10,9,5,14,8,,0.00,0,,256
2012-11-21,69,56,44,45,40,36,71,57,35,30.11,29.97,29.79,10,10,10,31,18,37,0.00,0,,205
2012-11-22,62,48,35,45,37,25,81,62,37,30.17,29.87,29.70,10,10,10,36,21,44,0.00,0,,269
2012-11-23,35,24,12,21,13,7,79,61,47,30.41,30.35,30.17,10,10,10,33,23,46,0.00,2,Rain,309
2012-11-24,39,26,12,23,15,7,86,61,39,30.37,30.09,29.82,10,10,10,21,7,26,0.00,1,,179
2012-11-25,39,34,28,27,24,21,80,67,52,30.16,29.98,29.83,10,10,9,16,10,16,0.00,3,,340
2012-11-26,32,20,8,23,11,3,79,62,43,30.43,30.34,30.18,10,10,10,20,7,24,0.00,3,Snow,352
2012-11-27,39,24,10,19,14,3,86,66,42,30.41,30.27,30.12,10,10,9,22,8,30,0.00,1,Snow,234
2012-11-28,46,29,12,27,20,9,93,69,37,30.38,30.25,30.08,10,10,6,17,6,,0.00,0,,196
2012-11-29,53,40,28,36,30,23,93,72,50,30.07,29.99,29.93,10,10,4,16,8,,0.00,0,,191
2012-11-30,48,36,23,36,29,21,100,84,62,30.07,30.01,29.93,10,7,3,12,5,,0.00,1,,87